Latest Conditions
At L.F.Wade Int. Airport
Recorded at 10:55 am
Few Clouds
Temp.: 
26°C/80°F
Humidity: 
63%
Wind: 
N 5KT
or 6mph
Island Observations
 
Observations
Friday, September 25, 2020

Observations are in local time and taken at least once an hour, or upon the start and end of specified events such as showers and thunderstorms.

Time Sky / Weather Wind Speed/Gusts Temp. R.H. Pressure
     knots (mph)  °C (°F)  %  mb / "Hg
 10:55 Few Clouds  N 5/0 (6/0) 26(80) 63 1024 / 30.23
 09:55 Few Clouds  NNW 3/0 (3/0) 26(78) 62 1023 / 30.21
 08:55 Few Clouds  N 3/0 (3/0) 25(77) 67 1023 / 30.20
 07:55 Few Clouds  NNW 2/0 (2/0) 22(71) 86 1022 / 30.18
 06:55 Few Clouds  NW 2/0 (2/0) 22(71) 85 1022 / 30.17
 05:55 Few Clouds  WNW 2/0 (2/0) 21(71) 85 1021 / 30.16
 04:55 Few Clouds  WNW 2/0 (2/0) 22(71) 85 1021 / 30.16
 03:55 Few Clouds  NNW 1/0 (1/0) 21(70) 86 1021 / 30.16
 02:55 Few Clouds  Calm 22(71) 85 1021 / 30.16
 01:55 Few Clouds  NW 2/0 (2/0) 22(72) 86 1022 / 30.17
 00:55 Clear  WNW 2/0 (2/0) 22(72) 85 1022 / 30.17
 23:55 Few Clouds  W 1/0 (1/0) 22(71) 83 1022 / 30.17
 22:55 Few Clouds  Calm 24(75) 75 1022 / 30.17
 21:55 Few Clouds  NW 2/0 (2/0) 24(74) 71 1022 / 30.17
 20:55 Few Clouds  VRB 2/0 (2/0) 24(76) 64 1021 / 30.15
 19:55 Few Clouds  NNW 3/0 (3/0) 24(76) 66 1020 / 30.13
 18:55 Few Clouds  NW 4/0 (5/0) 25(77) 60 1020 / 30.12
 17:55 Few Clouds  NW 4/0 (5/0) 26(79) 57 1019 / 30.10
 16:55 Few Clouds  NNW 4/0 (5/0) 27(80) 58 1019 / 30.10
 15:55 Partly Cloudy  NNW 5/0 (6/0) 26(80) 56 1019 / 30.09
 14:55 Partly Cloudy  NW 6/0 (7/0) 26(80) 55 1019 / 30.10
 13:55 Partly Cloudy  NNW 5/0 (6/0) 26(79) 56 1020 / 30.11
 12:55 Partly Cloudy  NNW 4/0 (5/0) 26(80) 57 1020 / 30.11
 11:55 Few Clouds  NNW 5/0 (6/0) 26(80) 54 1020 / 30.11
 10:55 Few Clouds  N 4/0 (5/0) 26(79) 59 1019 / 30.10
 09:55 Few Clouds  NNW 5/0 (6/0) 25(78) 60 1019 / 30.09
 08:55 Few Clouds  NNW 3/0 (3/0) 25(77) 57 1018 / 30.07
 07:55 Partly Cloudy  NW 5/0 (6/0) 24(75) 59 1018 / 30.05
 06:55 Few Clouds  NW 7/0 (8/0) 24(75) 60 1017 / 30.04
 05:55 Few Clouds  NW 7/0 (8/0) 24(75) 62 1017 / 30.03
 04:55 Partly Cloudy  NW 8/0 (9/0) 24(75) 62 1017 / 30.03
 03:55 Mostly Cloudy Showers NW 4/0 (5/0) 24(75) 63 1017 / 30.02
 02:55 Mostly Cloudy Showers NW 3/0 (3/0) 24(75) 68 1017 / 30.02
 01:55 Mostly Cloudy  WNW 4/0 (5/0) 24(75) 60 1017 / 30.03
 00:55 Few Clouds  WNW 3/0 (3/0) 23(74) 63 1017 / 30.03
 23:55 Partly Cloudy  WNW 5/0 (6/0) 24(75) 61 1017 / 30.04
 22:55 Mostly Cloudy  NW 5/0 (6/0) 24(75) 61 1017 / 30.03
 21:55 Mostly Cloudy  NNW 3/0 (3/0) 24(76) 56 1017 / 30.03
 20:55 Mostly Cloudy  WNW 3/0 (3/0) 24(75) 60 1017 / 30.02
 19:55 Mostly Cloudy  NW 5/0 (6/0) 24(75) 57 1016 / 30.00
 18:55 Mostly Cloudy  NW 6/0 (7/0) 24(76) 56 1016 / 29.99
 17:55 Partly Cloudy  NW 9/0 (10/0) 25(77) 52 1015 / 29.98
 16:55 Partly Cloudy  NW 9/0 (10/0) 26(78) 54 1015 / 29.97
 15:55 Partly Cloudy  WNW 7/0 (8/0) 26(78) 52 1015 / 29.97
 14:55 Partly Cloudy  NW 8/0 (9/0) 26(78) 54 1015 / 29.98
 13:55 Mostly Cloudy  NW 6/0 (7/0) 26(78) 53 1016 / 29.99
 12:55 Partly Cloudy  WNW 7/0 (8/0) 26(78) 52 1016 / 29.99
 11:55 Partly Cloudy  WNW 8/0 (9/0) 25(78) 49 1016 / 29.99
 10:55 Mostly Cloudy  NW 9/0 (10/0) 25(77) 55 1015 / 29.98
 09:55 Mostly Cloudy Showers NW 9/0 (10/0) 24(76) 60 1015 / 29.97
 08:55 Mostly Cloudy Showers NW 7/0 (8/0) 24(75) 62 1015 / 29.96
 07:55 Mostly Cloudy Showers WNW 3/0 (3/0) 23(74) 61 1014 / 29.95
 06:55 Mostly Cloudy Showers NW 6/0 (7/0) 23(74) 55 1014 / 29.94
 05:55 Partly Cloudy  WNW 9/0 (10/0) 23(74) 54 1014 / 29.93
 04:55 Partly Cloudy  WNW 8/0 (9/0) 23(74) 57 1013 / 29.92
 03:55 Partly Cloudy  WNW 11/0 (13/0) 23(74) 58 1013 / 29.91
 02:55 Mostly Cloudy  NW 11/0 (13/0) 23(74) 59 1013 / 29.91
 01:55 Partly Cloudy  WNW 14/0 (16/0) 23(74) 55 1013 / 29.90
 00:55 Mostly Cloudy  NW 14/0 (16/0) 23(74) 59 1013 / 29.90
 23:55 Partly Cloudy  WNW 12/0 (14/0) 23(74) 54 1013 / 29.90
 22:55 Partly Cloudy  WNW 12/0 (14/0) 23(74) 53 1013 / 29.90
 21:55 Few Clouds  NW 11/0 (13/0) 23(74) 56 1012 / 29.89
 20:55 Partly Cloudy  NW 11/0 (13/0) 23(74) 55 1012 / 29.87
 19:55 Partly Cloudy  WNW 11/0 (13/0) 23(74) 54 1011 / 29.85
 18:55 Partly Cloudy  NW 13/0 (15/0) 24(74) 60 1010 / 29.84
 17:55 Mostly Cloudy  NW 14/0 (16/0) 24(75) 57 1010 / 29.82
 16:55 Partly Cloudy  NW 13/0 (15/0) 24(76) 61 1009 / 29.81
 15:55 Few Clouds  WNW 14/0 (16/0) 25(77) 51 1009 / 29.80
 14:55 Few Clouds  WNW 17/0 (20/0) 25(77) 50 1009 / 29.80
 13:55 Few Clouds  WNW 15/0 (17/0) 25(77) 61 1009 / 29.80
 12:55 Mostly Cloudy  NW 16/0 (18/0) 25(77) 65 1009 / 29.79
 11:55 Mostly Cloudy Showers NW 16/0 (18/0) 25(77) 65 1008 / 29.78
 10:55 Mostly Cloudy Showers NW 16/0 (18/0) 25(77) 67 1008 / 29.77
 10:12 Mostly Cloudy Showers NNW 12/0 (14/0) 24(76) 72 1008 / 29.76
 10:05 Mostly Cloudy Showers NNW 17/0 (20/0) 23(74) 75 1008 / 29.76
 09:55 Mostly Cloudy Showers NW 17/0 (20/0) 25(76) 73 1007 / 29.75
 08:55 Partly Cloudy Showers NW 13/0 (15/0) 24(76) 73 1006 / 29.72
 08:46 Mostly Cloudy Showers NNW 13/0 (15/0) 24(74) 78 1006 / 29.72
 08:34 Mostly Cloudy Showers NW 15/0 (17/0) 22(72) 82 1006 / 29.72
 07:55 Mostly Cloudy Showers NNW 13/0 (15/0) 23(74) 81 1006 / 29.70
 07:09 Mostly Cloudy Showers NW 8/0 (9/0) 21(70) 87 1005 / 29.68
 07:02 Mostly Cloudy Showers NW 13/31 (15/36) 20(68) 91 1005 / 29.68
 06:57 Overcast Showers NW 14/31 (16/36) 21(69) 94 1005 / 29.68
 06:56 Overcast Showers NW 14/31 (16/36) 20(68) 91 1005 / 29.68
 06:55 Mostly Cloudy Showers NW 14/0 (16/0) 21(71) 86 1005 / 29.67
 06:37 Mostly Cloudy Showers NW 15/0 (17/0) 23(74) 84 1004 / 29.66
 05:55 Mostly Cloudy  NW 16/0 (18/0) 25(76) 72 1003 / 29.63
 04:55 Mostly Cloudy Showers NW 18/0 (21/0) 24(75) 79 1003 / 29.62
 03:55 Mostly Cloudy  NNW 21/33 (24/38) 24(75) 76 1002 / 29.60
 02:55 Mostly Cloudy Showers NNW 23/34 (26/39) 23(73) 86 1002 / 29.58
 01:55 Overcast Showers NNW 22/0 (25/0) 23(74) 87 1001 / 29.55
 00:55 Overcast Showers NNW 24/35 (28/40) 24(75) 84 1000 / 29.52
 23:55 Overcast Showers NNW 23/0 (26/0) 24(76) 85 999 / 29.49
 22:55 Mostly Cloudy Showers N 15/0 (17/0) 25(76) 87 998 / 29.46
 21:55 Mostly Cloudy Showers NNW 16/0 (18/0) 25(77) 86 997 / 29.43
 20:55 Mostly Cloudy Showers NNW 15/0 (17/0) 25(77) 89 996 / 29.42
 19:55 Mostly Cloudy Showers NNW 18/0 (21/0) 25(77) 90 996 / 29.41
 18:55 Mostly Cloudy  N 18/0 (21/0) 26(78) 86 995 / 29.39
 17:55 Mostly Cloudy  N 17/28 (20/32) 26(79) 84 995 / 29.37
 16:55 Mostly Cloudy  N 20/30 (23/35) 26(79) 84 994 / 29.36
Island AWOS